sensor_id;sensor_type;location;lat;lon;timestamp;P1;durP1;ratioP1;P2;durP2;ratioP2
45356;SDS011;31092;51.924;21.448;2023-07-31T00:00:32;2.45;;;1.30;;
45356;SDS011;31092;51.924;21.448;2023-07-31T00:03:08;1.38;;;1.27;;
45356;SDS011;31092;51.924;21.448;2023-07-31T00:05:44;3.40;;;2.30;;
45356;SDS011;31092;51.924;21.448;2023-07-31T00:08:18;5.00;;;1.98;;
45356;SDS011;31092;51.924;21.448;2023-07-31T00:11:06;1.75;;;1.60;;
45356;SDS011;31092;51.924;21.448;2023-07-31T00:16:55;2.97;;;1.77;;
45356;SDS011;31092;51.924;21.448;2023-07-31T00:19:22;1.50;;;1.40;;
45356;SDS011;31092;51.924;21.448;2023-07-31T00:21:51;1.40;;;1.30;;
45356;SDS011;31092;51.924;21.448;2023-07-31T00:24:19;1.38;;;1.27;;
45356;SDS011;31092;51.924;21.448;2023-07-31T00:26:45;1.60;;;1.50;;
45356;SDS011;31092;51.924;21.448;2023-07-31T00:29:10;1.52;;;1.42;;
45356;SDS011;31092;51.924;21.448;2023-07-31T00:31:56;1.17;;;1.17;;
45356;SDS011;31092;51.924;21.448;2023-07-31T00:34:22;1.50;;;1.40;;
45356;SDS011;31092;51.924;21.448;2023-07-31T00:37:14;1.95;;;1.60;;
45356;SDS011;31092;51.924;21.448;2023-07-31T00:39:40;1.50;;;1.40;;
45356;SDS011;31092;51.924;21.448;2023-07-31T00:42:10;1.42;;;1.33;;
45356;SDS011;31092;51.924;21.448;2023-07-31T00:44:55;1.70;;;1.40;;
45356;SDS011;31092;51.924;21.448;2023-07-31T00:47:21;1.75;;;1.65;;
45356;SDS011;31092;51.924;21.448;2023-07-31T00:50:04;1.30;;;1.20;;
45356;SDS011;31092;51.924;21.448;2023-07-31T00:52:31;1.58;;;1.48;;
45356;SDS011;31092;51.924;21.448;2023-07-31T00:54:56;1.40;;;1.30;;
45356;SDS011;31092;51.924;21.448;2023-07-31T00:57:25;1.67;;;1.58;;
45356;SDS011;31092;51.924;21.448;2023-07-31T00:59:51;1.80;;;1.20;;
45356;SDS011;31092;51.924;21.448;2023-07-31T01:02:16;7.15;;;1.50;;
45356;SDS011;31092;51.924;21.448;2023-07-31T01:04:43;1.48;;;1.38;;
45356;SDS011;31092;51.924;21.448;2023-07-31T01:07:20;1.52;;;1.30;;
45356;SDS011;31092;51.924;21.448;2023-07-31T01:09:57;1.48;;;1.30;;
45356;SDS011;31092;51.924;21.448;2023-07-31T01:12:23;2.97;;;1.77;;
45356;SDS011;31092;51.924;21.448;2023-07-31T01:15:07;1.52;;;1.30;;
45356;SDS011;31092;51.924;21.448;2023-07-31T01:17:40;4.25;;;1.77;;
45356;SDS011;31092;51.924;21.448;2023-07-31T01:20:13;1.50;;;1.40;;
45356;SDS011;31092;51.924;21.448;2023-07-31T01:28:42;1.25;;;1.08;;
45356;SDS011;31092;51.924;21.448;2023-07-31T01:31:29;2.50;;;1.60;;
45356;SDS011;31092;51.924;21.448;2023-07-31T01:33:56;1.80;;;1.63;;
45356;SDS011;31092;51.924;21.448;2023-07-31T01:36:24;1.45;;;1.33;;
45356;SDS011;31092;51.924;21.448;2023-07-31T01:38:50;1.40;;;1.30;;
45356;SDS011;31092;51.924;21.448;2023-07-31T01:41:27;2.00;;;1.60;;
45356;SDS011;31092;51.924;21.448;2023-07-31T01:43:53;1.58;;;1.33;;
45356;SDS011;31092;51.924;21.448;2023-07-31T01:46:19;1.40;;;1.30;;
45356;SDS011;31092;51.924;21.448;2023-07-31T01:48:44;2.15;;;1.48;;
45356;SDS011;31092;51.924;21.448;2023-07-31T01:51:10;1.33;;;1.23;;
45356;SDS011;31092;51.924;21.448;2023-07-31T01:53:38;1.25;;;1.15;;
45356;SDS011;31092;51.924;21.448;2023-07-31T01:56:04;1.05;;;1.02;;
45356;SDS011;31092;51.924;21.448;2023-07-31T01:58:30;1.63;;;1.52;;
45356;SDS011;31092;51.924;21.448;2023-07-31T02:00:55;1.90;;;1.63;;
45356;SDS011;31092;51.924;21.448;2023-07-31T02:03:21;1.50;;;1.40;;
45356;SDS011;31092;51.924;21.448;2023-07-31T02:05:47;2.00;;;1.45;;
45356;SDS011;31092;51.924;21.448;2023-07-31T02:08:13;2.63;;;1.88;;
45356;SDS011;31092;51.924;21.448;2023-07-31T02:10:39;1.52;;;1.40;;
45356;SDS011;31092;51.924;21.448;2023-07-31T02:13:05;1.65;;;1.55;;
45356;SDS011;31092;51.924;21.448;2023-07-31T02:15:31;1.50;;;1.27;;
45356;SDS011;31092;51.924;21.448;2023-07-31T02:18:00;1.92;;;1.60;;
45356;SDS011;31092;51.924;21.448;2023-07-31T02:20:28;2.35;;;1.63;;
45356;SDS011;31092;51.924;21.448;2023-07-31T02:22:53;1.52;;;1.42;;
45356;SDS011;31092;51.924;21.448;2023-07-31T02:25:31;1.48;;;1.38;;
45356;SDS011;31092;51.924;21.448;2023-07-31T02:27:57;1.60;;;1.40;;
45356;SDS011;31092;51.924;21.448;2023-07-31T02:30:22;2.05;;;1.35;;
45356;SDS011;31092;51.924;21.448;2023-07-31T02:32:48;2.45;;;1.60;;
45356;SDS011;31092;51.924;21.448;2023-07-31T02:35:14;2.53;;;1.50;;
45356;SDS011;31092;51.924;21.448;2023-07-31T02:37:41;1.67;;;1.58;;
45356;SDS011;31092;51.924;21.448;2023-07-31T02:40:07;3.03;;;1.10;;
45356;SDS011;31092;51.924;21.448;2023-07-31T02:42:33;1.23;;;1.13;;
45356;SDS011;31092;51.924;21.448;2023-07-31T02:44:58;1.65;;;1.52;;
45356;SDS011;31092;51.924;21.448;2023-07-31T02:47:42;1.35;;;1.25;;
45356;SDS011;31092;51.924;21.448;2023-07-31T02:50:08;1.70;;;1.50;;
45356;SDS011;31092;51.924;21.448;2023-07-31T02:52:34;1.73;;;1.55;;
45356;SDS011;31092;51.924;21.448;2023-07-31T02:55:09;1.60;;;1.50;;
45356;SDS011;31092;51.924;21.448;2023-07-31T02:57:34;2.97;;;1.50;;
45356;SDS011;31092;51.924;21.448;2023-07-31T03:00:20;1.88;;;1.38;;
45356;SDS011;31092;51.924;21.448;2023-07-31T03:02:46;3.00;;;1.63;;
45356;SDS011;31092;51.924;21.448;2023-07-31T03:05:11;2.17;;;1.50;;
45356;SDS011;31092;51.924;21.448;2023-07-31T03:07:37;1.75;;;1.65;;
45356;SDS011;31092;51.924;21.448;2023-07-31T03:10:02;1.00;;;1.00;;
45356;SDS011;31092;51.924;21.448;2023-07-31T03:12:28;0.95;;;0.95;;
45356;SDS011;31092;51.924;21.448;2023-07-31T03:14:54;0.95;;;0.93;;
45356;SDS011;31092;51.924;21.448;2023-07-31T03:17:20;1.00;;;0.88;;
45356;SDS011;31092;51.924;21.448;2023-07-31T03:19:45;0.90;;;0.90;;
45356;SDS011;31092;51.924;21.448;2023-07-31T03:22:11;0.82;;;0.82;;
45356;SDS011;31092;51.924;21.448;2023-07-31T03:24:36;0.90;;;0.90;;
45356;SDS011;31092;51.924;21.448;2023-07-31T03:27:02;3.13;;;1.55;;
45356;SDS011;31092;51.924;21.448;2023-07-31T03:29:28;1.65;;;1.55;;
45356;SDS011;31092;51.924;21.448;2023-07-31T03:31:54;1.25;;;1.17;;
45356;SDS011;31092;51.924;21.448;2023-07-31T03:34:19;4.57;;;1.70;;
45356;SDS011;31092;51.924;21.448;2023-07-31T03:36:48;2.13;;;1.45;;
45356;SDS011;31092;51.924;21.448;2023-07-31T03:39:13;1.90;;;1.80;;
45356;SDS011;31092;51.924;21.448;2023-07-31T03:41:39;1.90;;;1.80;;
45356;SDS011;31092;51.924;21.448;2023-07-31T03:44:14;6.93;;;2.22;;
45356;SDS011;31092;51.924;21.448;2023-07-31T03:46:56;2.60;;;2.22;;
45356;SDS011;31092;51.924;21.448;2023-07-31T03:49:22;3.95;;;2.58;;
45356;SDS011;31092;51.924;21.448;2023-07-31T03:51:48;3.28;;;2.10;;
45356;SDS011;31092;51.924;21.448;2023-07-31T03:54:14;2.33;;;2.13;;
45356;SDS011;31092;51.924;21.448;2023-07-31T03:56:43;2.65;;;2.33;;
45356;SDS011;31092;51.924;21.448;2023-07-31T03:59:54;3.30;;;2.58;;
45356;SDS011;31092;51.924;21.448;2023-07-31T04:01:57;2.78;;;2.58;;
45356;SDS011;31092;51.924;21.448;2023-07-31T04:04:23;2.33;;;2.13;;
45356;SDS011;31092;51.924;21.448;2023-07-31T04:06:48;3.42;;;2.38;;
45356;SDS011;31092;51.924;21.448;2023-07-31T04:09:22;1.95;;;1.85;;
45356;SDS011;31092;51.924;21.448;2023-07-31T04:11:47;2.13;;;1.92;;
45356;SDS011;31092;51.924;21.448;2023-07-31T04:14:13;2.17;;;1.98;;
45356;SDS011;31092;51.924;21.448;2023-07-31T04:16:39;2.22;;;1.88;;
45356;SDS011;31092;51.924;21.448;2023-07-31T04:19:04;2.05;;;1.83;;
45356;SDS011;31092;51.924;21.448;2023-07-31T04:21:41;1.90;;;1.80;;
45356;SDS011;31092;51.924;21.448;2023-07-31T04:24:12;2.72;;;2.08;;
45356;SDS011;31092;51.924;21.448;2023-07-31T04:27:06;2.22;;;1.90;;
45356;SDS011;31092;51.924;21.448;2023-07-31T04:29:32;3.25;;;2.17;;
45356;SDS011;31092;51.924;21.448;2023-07-31T04:32:19;3.35;;;1.73;;
45356;SDS011;31092;51.924;21.448;2023-07-31T04:34:45;6.60;;;2.00;;
45356;SDS011;31092;51.924;21.448;2023-07-31T04:40:50;2.05;;;1.80;;
45356;SDS011;31092;51.924;21.448;2023-07-31T04:43:15;2.38;;;2.03;;
45356;SDS011;31092;51.924;21.448;2023-07-31T04:45:47;2.30;;;1.85;;
45356;SDS011;31092;51.924;21.448;2023-07-31T04:48:14;2.47;;;1.70;;
45356;SDS011;31092;51.924;21.448;2023-07-31T04:50:40;2.45;;;1.88;;
45356;SDS011;31092;51.924;21.448;2023-07-31T04:53:05;3.30;;;1.77;;
45356;SDS011;31092;51.924;21.448;2023-07-31T04:55:31;2.60;;;2.05;;
45356;SDS011;31092;51.924;21.448;2023-07-31T04:58:07;1.90;;;1.70;;
45356;SDS011;31092;51.924;21.448;2023-07-31T05:00:33;4.72;;;1.60;;
45356;SDS011;31092;51.924;21.448;2023-07-31T05:02:58;4.43;;;1.67;;
45356;SDS011;31092;51.924;21.448;2023-07-31T05:08:04;2.17;;;1.77;;
45356;SDS011;31092;51.924;21.448;2023-07-31T05:10:29;3.05;;;2.05;;
45356;SDS011;31092;51.924;21.448;2023-07-31T05:12:55;1.73;;;1.50;;
45356;SDS011;31092;51.924;21.448;2023-07-31T05:15:21;1.92;;;1.77;;
45356;SDS011;31092;51.924;21.448;2023-07-31T05:17:46;2.13;;;1.92;;
45356;SDS011;31092;51.924;21.448;2023-07-31T05:20:18;2.72;;;2.05;;
45356;SDS011;31092;51.924;21.448;2023-07-31T05:22:44;2.63;;;1.92;;
45356;SDS011;31092;51.924;21.448;2023-07-31T05:25:10;1.90;;;1.52;;
45356;SDS011;31092;51.924;21.448;2023-07-31T05:30:21;4.00;;;2.15;;
45356;SDS011;31092;51.924;21.448;2023-07-31T05:32:47;2.97;;;1.73;;
45356;SDS011;31092;51.924;21.448;2023-07-31T05:35:13;2.15;;;1.70;;
45356;SDS011;31092;51.924;21.448;2023-07-31T05:37:39;1.60;;;1.50;;
45356;SDS011;31092;51.924;21.448;2023-07-31T05:40:16;3.22;;;1.73;;
45356;SDS011;31092;51.924;21.448;2023-07-31T05:42:42;1.75;;;1.40;;
45356;SDS011;31092;51.924;21.448;2023-07-31T05:45:07;1.92;;;1.83;;
45356;SDS011;31092;51.924;21.448;2023-07-31T05:47:34;2.20;;;1.75;;
45356;SDS011;31092;51.924;21.448;2023-07-31T05:49:59;4.13;;;1.92;;
45356;SDS011;31092;51.924;21.448;2023-07-31T05:52:25;2.78;;;1.60;;
45356;SDS011;31092;51.924;21.448;2023-07-31T05:54:51;8.27;;;2.33;;
45356;SDS011;31092;51.924;21.448;2023-07-31T05:57:17;6.05;;;2.30;;
45356;SDS011;31092;51.924;21.448;2023-07-31T05:59:42;1.77;;;1.60;;
45356;SDS011;31092;51.924;21.448;2023-07-31T06:02:08;2.00;;;1.60;;
45356;SDS011;31092;51.924;21.448;2023-07-31T06:04:36;1.60;;;1.33;;
45356;SDS011;31092;51.924;21.448;2023-07-31T06:07:02;4.85;;;2.10;;
45356;SDS011;31092;51.924;21.448;2023-07-31T06:09:28;2.15;;;1.95;;
45356;SDS011;31092;51.924;21.448;2023-07-31T06:11:54;2.33;;;1.60;;
45356;SDS011;31092;51.924;21.448;2023-07-31T06:14:20;1.92;;;1.42;;
45356;SDS011;31092;51.924;21.448;2023-07-31T06:16:45;2.38;;;1.75;;
45356;SDS011;31092;51.924;21.448;2023-07-31T06:19:11;3.47;;;2.00;;
45356;SDS011;31092;51.924;21.448;2023-07-31T06:21:36;4.72;;;2.10;;
45356;SDS011;31092;51.924;21.448;2023-07-31T06:24:14;3.45;;;1.77;;
45356;SDS011;31092;51.924;21.448;2023-07-31T06:26:44;1.90;;;1.63;;
45356;SDS011;31092;51.924;21.448;2023-07-31T06:29:09;2.30;;;1.80;;
45356;SDS011;31092;51.924;21.448;2023-07-31T06:31:35;3.55;;;1.50;;
45356;SDS011;31092;51.924;21.448;2023-07-31T06:34:01;2.00;;;1.60;;
45356;SDS011;31092;51.924;21.448;2023-07-31T06:36:27;2.45;;;1.70;;
45356;SDS011;31092;51.924;21.448;2023-07-31T06:38:53;4.97;;;1.67;;
45356;SDS011;31092;51.924;21.448;2023-07-31T06:41:27;1.92;;;1.65;;
45356;SDS011;31092;51.924;21.448;2023-07-31T06:43:53;1.50;;;1.35;;
45356;SDS011;31092;51.924;21.448;2023-07-31T06:46:19;2.28;;;1.65;;
45356;SDS011;31092;51.924;21.448;2023-07-31T06:48:45;2.50;;;1.60;;
45356;SDS011;31092;51.924;21.448;2023-07-31T06:51:10;3.30;;;1.30;;
45356;SDS011;31092;51.924;21.448;2023-07-31T06:53:39;1.60;;;1.40;;
45356;SDS011;31092;51.924;21.448;2023-07-31T06:56:14;1.90;;;1.70;;
45356;SDS011;31092;51.924;21.448;2023-07-31T06:58:40;1.80;;;1.63;;
45356;SDS011;31092;51.924;21.448;2023-07-31T07:01:06;2.22;;;1.45;;
45356;SDS011;31092;51.924;21.448;2023-07-31T07:03:32;2.47;;;1.52;;
45356;SDS011;31092;51.924;21.448;2023-07-31T07:05:58;3.97;;;1.50;;
45356;SDS011;31092;51.924;21.448;2023-07-31T07:11:05;2.05;;;1.40;;
45356;SDS011;31092;51.924;21.448;2023-07-31T07:13:46;1.75;;;1.65;;
45356;SDS011;31092;51.924;21.448;2023-07-31T07:16:12;4.57;;;1.75;;
45356;SDS011;31092;51.924;21.448;2023-07-31T07:18:37;1.83;;;1.50;;
45356;SDS011;31092;51.924;21.448;2023-07-31T07:21:03;2.15;;;1.40;;
45356;SDS011;31092;51.924;21.448;2023-07-31T07:23:29;3.22;;;1.65;;
45356;SDS011;31092;51.924;21.448;2023-07-31T07:25:54;1.65;;;1.52;;
45356;SDS011;31092;51.924;21.448;2023-07-31T07:28:20;1.67;;;1.58;;
45356;SDS011;31092;51.924;21.448;2023-07-31T07:30:50;1.85;;;1.75;;
45356;SDS011;31092;51.924;21.448;2023-07-31T07:33:18;1.73;;;1.52;;
45356;SDS011;31092;51.924;21.448;2023-07-31T07:35:53;2.88;;;1.90;;
45356;SDS011;31092;51.924;21.448;2023-07-31T07:38:19;1.60;;;1.50;;
45356;SDS011;31092;51.924;21.448;2023-07-31T07:40:45;4.32;;;1.95;;
45356;SDS011;31092;51.924;21.448;2023-07-31T07:43:15;2.40;;;1.90;;
45356;SDS011;31092;51.924;21.448;2023-07-31T07:45:44;2.50;;;1.40;;
45356;SDS011;31092;51.924;21.448;2023-07-31T07:48:10;4.35;;;1.70;;
45356;SDS011;31092;51.924;21.448;2023-07-31T07:50:37;4.05;;;1.40;;
45356;SDS011;31092;51.924;21.448;2023-07-31T07:53:03;4.65;;;1.58;;
45356;SDS011;31092;51.924;21.448;2023-07-31T07:55:31;2.00;;;1.67;;
45356;SDS011;31092;51.924;21.448;2023-07-31T07:58:44;1.95;;;1.45;;
45356;SDS011;31092;51.924;21.448;2023-07-31T08:01:32;2.50;;;1.63;;
45356;SDS011;31092;51.924;21.448;2023-07-31T08:06:34;2.75;;;2.28;;
45356;SDS011;31092;51.924;21.448;2023-07-31T08:09:00;2.60;;;1.60;;
45356;SDS011;31092;51.924;21.448;2023-07-31T08:13:56;2.67;;;1.73;;
45356;SDS011;31092;51.924;21.448;2023-07-31T08:19:15;4.78;;;1.85;;
45356;SDS011;31092;51.924;21.448;2023-07-31T08:22:01;3.55;;;1.88;;
45356;SDS011;31092;51.924;21.448;2023-07-31T08:27:53;5.55;;;1.50;;
45356;SDS011;31092;51.924;21.448;2023-07-31T08:30:26;3.10;;;1.60;;
45356;SDS011;31092;51.924;21.448;2023-07-31T08:32:55;2.38;;;1.77;;
45356;SDS011;31092;51.924;21.448;2023-07-31T08:35:25;7.15;;;1.80;;
45356;SDS011;31092;51.924;21.448;2023-07-31T08:37:53;1.67;;;1.58;;
45356;SDS011;31092;51.924;21.448;2023-07-31T08:40:19;1.52;;;1.42;;
45356;SDS011;31092;51.924;21.448;2023-07-31T08:42:55;2.30;;;1.73;;
45356;SDS011;31092;51.924;21.448;2023-07-31T08:45:22;2.90;;;1.75;;
45356;SDS011;31092;51.924;21.448;2023-07-31T08:47:48;2.35;;;1.42;;
45356;SDS011;31092;51.924;21.448;2023-07-31T08:50:34;2.10;;;1.42;;
45356;SDS011;31092;51.924;21.448;2023-07-31T08:56:21;1.83;;;1.42;;
45356;SDS011;31092;51.924;21.448;2023-07-31T08:58:47;2.90;;;1.10;;
45356;SDS011;31092;51.924;21.448;2023-07-31T09:01:14;1.70;;;1.60;;
45356;SDS011;31092;51.924;21.448;2023-07-31T09:03:40;1.67;;;1.58;;
45356;SDS011;31092;51.924;21.448;2023-07-31T09:06:07;1.48;;;1.38;;
45356;SDS011;31092;51.924;21.448;2023-07-31T09:08:33;1.50;;;1.40;;
45356;SDS011;31092;51.924;21.448;2023-07-31T09:11:02;2.35;;;1.20;;
45356;SDS011;31092;51.924;21.448;2023-07-31T09:13:31;1.85;;;1.67;;
45356;SDS011;31092;51.924;21.448;2023-07-31T09:15:57;2.13;;;1.80;;
45356;SDS011;31092;51.924;21.448;2023-07-31T09:18:23;1.40;;;1.30;;
45356;SDS011;31092;51.924;21.448;2023-07-31T09:21:04;2.28;;;1.42;;
45356;SDS011;31092;51.924;21.448;2023-07-31T09:23:41;1.58;;;1.45;;
45356;SDS011;31092;51.924;21.448;2023-07-31T09:26:07;7.18;;;1.58;;
45356;SDS011;31092;51.924;21.448;2023-07-31T09:28:33;1.50;;;1.40;;
45356;SDS011;31092;51.924;21.448;2023-07-31T09:30:58;2.72;;;1.70;;
45356;SDS011;31092;51.924;21.448;2023-07-31T09:33:24;1.67;;;1.30;;
45356;SDS011;31092;51.924;21.448;2023-07-31T09:35:49;7.47;;;1.70;;
45356;SDS011;31092;51.924;21.448;2023-07-31T09:38:15;1.15;;;1.05;;
45356;SDS011;31092;51.924;21.448;2023-07-31T09:40:42;2.72;;;1.42;;
45356;SDS011;31092;51.924;21.448;2023-07-31T09:43:10;1.65;;;1.55;;
45356;SDS011;31092;51.924;21.448;2023-07-31T09:45:38;1.90;;;1.25;;
45356;SDS011;31092;51.924;21.448;2023-07-31T09:48:08;2.67;;;1.15;;
45356;SDS011;31092;51.924;21.448;2023-07-31T09:50:42;2.63;;;1.20;;
45356;SDS011;31092;51.924;21.448;2023-07-31T09:53:09;1.40;;;1.30;;
45356;SDS011;31092;51.924;21.448;2023-07-31T09:55:36;1.67;;;1.30;;
45356;SDS011;31092;51.924;21.448;2023-07-31T09:58:06;1.35;;;1.20;;
45356;SDS011;31092;51.924;21.448;2023-07-31T10:00:33;1.50;;;1.40;;
45356;SDS011;31092;51.924;21.448;2023-07-31T10:03:00;1.30;;;1.20;;
45356;SDS011;31092;51.924;21.448;2023-07-31T10:05:31;3.03;;;1.52;;
45356;SDS011;31092;51.924;21.448;2023-07-31T10:07:59;2.28;;;1.67;;
45356;SDS011;31092;51.924;21.448;2023-07-31T10:10:25;14.43;;;1.75;;
45356;SDS011;31092;51.924;21.448;2023-07-31T10:12:53;3.22;;;1.60;;
45356;SDS011;31092;51.924;21.448;2023-07-31T10:15:21;3.83;;;1.98;;
45356;SDS011;31092;51.924;21.448;2023-07-31T10:17:48;1.67;;;1.40;;
45356;SDS011;31092;51.924;21.448;2023-07-31T10:20:15;1.30;;;1.20;;
45356;SDS011;31092;51.924;21.448;2023-07-31T10:22:42;2.90;;;1.65;;
45356;SDS011;31092;51.924;21.448;2023-07-31T10:25:11;2.40;;;1.60;;
45356;SDS011;31092;51.924;21.448;2023-07-31T10:27:40;3.10;;;1.92;;
45356;SDS011;31092;51.924;21.448;2023-07-31T10:30:07;1.90;;;1.67;;
45356;SDS011;31092;51.924;21.448;2023-07-31T10:32:37;2.53;;;1.75;;
45356;SDS011;31092;51.924;21.448;2023-07-31T10:35:05;2.70;;;1.60;;
45356;SDS011;31092;51.924;21.448;2023-07-31T10:37:39;1.55;;;1.45;;
45356;SDS011;31092;51.924;21.448;2023-07-31T10:40:06;2.42;;;1.95;;
45356;SDS011;31092;51.924;21.448;2023-07-31T10:42:48;1.90;;;1.70;;
45356;SDS011;31092;51.924;21.448;2023-07-31T10:45:26;1.70;;;1.50;;
45356;SDS011;31092;51.924;21.448;2023-07-31T10:48:02;1.42;;;1.33;;
45356;SDS011;31092;51.924;21.448;2023-07-31T10:52:58;1.38;;;1.27;;
45356;SDS011;31092;51.924;21.448;2023-07-31T10:55:41;3.85;;;1.42;;
45356;SDS011;31092;51.924;21.448;2023-07-31T10:58:12;1.50;;;1.40;;
45356;SDS011;31092;51.924;21.448;2023-07-31T11:00:41;1.90;;;1.45;;
45356;SDS011;31092;51.924;21.448;2023-07-31T11:03:13;1.75;;;1.05;;
45356;SDS011;31092;51.924;21.448;2023-07-31T11:05:47;1.30;;;1.20;;
45356;SDS011;31092;51.924;21.448;2023-07-31T11:08:16;1.80;;;1.50;;
45356;SDS011;31092;51.924;21.448;2023-07-31T11:10:46;2.35;;;1.67;;
45356;SDS011;31092;51.924;21.448;2023-07-31T11:13:12;2.90;;;1.40;;
45356;SDS011;31092;51.924;21.448;2023-07-31T11:15:39;2.03;;;1.55;;
45356;SDS011;31092;51.924;21.448;2023-07-31T11:18:04;2.67;;;1.50;;
45356;SDS011;31092;51.924;21.448;2023-07-31T11:20:36;2.30;;;1.70;;
45356;SDS011;31092;51.924;21.448;2023-07-31T11:23:03;1.73;;;1.60;;
45356;SDS011;31092;51.924;21.448;2023-07-31T11:25:33;1.55;;;1.45;;
45356;SDS011;31092;51.924;21.448;2023-07-31T11:28:05;3.35;;;2.17;;
45356;SDS011;31092;51.924;21.448;2023-07-31T11:30:33;1.40;;;1.30;;
45356;SDS011;31092;51.924;21.448;2023-07-31T11:33:00;4.88;;;1.55;;
45356;SDS011;31092;51.924;21.448;2023-07-31T11:35:28;1.80;;;1.20;;
45356;SDS011;31092;51.924;21.448;2023-07-31T11:37:58;1.42;;;1.27;;
45356;SDS011;31092;51.924;21.448;2023-07-31T11:40:23;1.52;;;1.40;;
45356;SDS011;31092;51.924;21.448;2023-07-31T11:42:54;1.17;;;1.10;;
45356;SDS011;31092;51.924;21.448;2023-07-31T11:45:20;8.95;;;1.42;;
45356;SDS011;31092;51.924;21.448;2023-07-31T11:47:46;1.33;;;1.23;;
45356;SDS011;31092;51.924;21.448;2023-07-31T11:50:11;2.95;;;1.48;;
45356;SDS011;31092;51.924;21.448;2023-07-31T11:52:38;2.45;;;1.30;;
45356;SDS011;31092;51.924;21.448;2023-07-31T11:55:09;1.52;;;1.42;;
45356;SDS011;31092;51.924;21.448;2023-07-31T11:57:39;2.40;;;1.65;;
45356;SDS011;31092;51.924;21.448;2023-07-31T12:00:07;1.40;;;1.30;;
45356;SDS011;31092;51.924;21.448;2023-07-31T12:02:36;2.70;;;1.25;;
45356;SDS011;31092;51.924;21.448;2023-07-31T12:05:02;2.47;;;1.58;;
45356;SDS011;31092;51.924;21.448;2023-07-31T12:07:42;2.33;;;1.30;;
45356;SDS011;31092;51.924;21.448;2023-07-31T12:10:11;3.22;;;1.40;;
45356;SDS011;31092;51.924;21.448;2023-07-31T12:12:36;1.42;;;1.33;;
45356;SDS011;31092;51.924;21.448;2023-07-31T12:15:02;2.40;;;1.52;;
45356;SDS011;31092;51.924;21.448;2023-07-31T12:17:28;2.20;;;1.38;;
45356;SDS011;31092;51.924;21.448;2023-07-31T12:19:53;1.35;;;1.23;;
45356;SDS011;31092;51.924;21.448;2023-07-31T12:22:20;2.55;;;1.42;;
45356;SDS011;31092;51.924;21.448;2023-07-31T12:24:46;12.68;;;1.67;;
45356;SDS011;31092;51.924;21.448;2023-07-31T12:27:12;2.13;;;1.10;;
45356;SDS011;31092;51.924;21.448;2023-07-31T12:29:40;2.88;;;1.23;;
45356;SDS011;31092;51.924;21.448;2023-07-31T12:32:22;1.30;;;1.10;;
45356;SDS011;31092;51.924;21.448;2023-07-31T12:34:53;4.28;;;1.48;;
45356;SDS011;31092;51.924;21.448;2023-07-31T12:37:20;7.05;;;1.20;;
45356;SDS011;31092;51.924;21.448;2023-07-31T12:39:47;0.88;;;0.85;;
45356;SDS011;31092;51.924;21.448;2023-07-31T12:42:12;0.77;;;0.77;;
45356;SDS011;31092;51.924;21.448;2023-07-31T12:44:38;1.30;;;1.20;;
45356;SDS011;31092;51.924;21.448;2023-07-31T12:47:03;1.13;;;0.90;;
45356;SDS011;31092;51.924;21.448;2023-07-31T12:49:29;1.02;;;0.93;;
45356;SDS011;31092;51.924;21.448;2023-07-31T12:51:55;2.38;;;1.02;;
45356;SDS011;31092;51.924;21.448;2023-07-31T12:54:20;0.75;;;0.75;;
45356;SDS011;31092;51.924;21.448;2023-07-31T12:56:46;0.90;;;0.90;;
45356;SDS011;31092;51.924;21.448;2023-07-31T12:59:11;0.82;;;0.82;;
45356;SDS011;31092;51.924;21.448;2023-07-31T13:01:37;2.25;;;0.73;;
45356;SDS011;31092;51.924;21.448;2023-07-31T13:04:02;4.65;;;1.63;;
45356;SDS011;31092;51.924;21.448;2023-07-31T13:06:28;2.53;;;1.50;;
45356;SDS011;31092;51.924;21.448;2023-07-31T13:08:53;2.80;;;1.08;;
45356;SDS011;31092;51.924;21.448;2023-07-31T13:11:19;5.28;;;1.30;;
45356;SDS011;31092;51.924;21.448;2023-07-31T13:13:44;1.52;;;0.98;;
45356;SDS011;31092;51.924;21.448;2023-07-31T13:16:10;0.93;;;0.93;;
45356;SDS011;31092;51.924;21.448;2023-07-31T13:18:36;1.77;;;1.08;;
45356;SDS011;31092;51.924;21.448;2023-07-31T13:21:01;4.93;;;1.52;;
45356;SDS011;31092;51.924;21.448;2023-07-31T13:23:27;1.85;;;1.30;;
45356;SDS011;31092;51.924;21.448;2023-07-31T13:25:52;1.27;;;1.08;;
45356;SDS011;31092;51.924;21.448;2023-07-31T13:28:18;1.27;;;0.80;;
45356;SDS011;31092;51.924;21.448;2023-07-31T13:30:43;0.80;;;0.80;;
45356;SDS011;31092;51.924;21.448;2023-07-31T13:33:09;1.30;;;1.20;;
45356;SDS011;31092;51.924;21.448;2023-07-31T13:35:35;0.75;;;0.75;;
45356;SDS011;31092;51.924;21.448;2023-07-31T13:38:00;1.30;;;1.10;;
45356;SDS011;31092;51.924;21.448;2023-07-31T13:40:26;1.50;;;1.20;;
45356;SDS011;31092;51.924;21.448;2023-07-31T13:42:51;1.13;;;1.05;;
45356;SDS011;31092;51.924;21.448;2023-07-31T13:45:17;2.45;;;1.10;;
45356;SDS011;31092;51.924;21.448;2023-07-31T13:47:43;1.27;;;1.08;;
45356;SDS011;31092;51.924;21.448;2023-07-31T13:50:08;2.40;;;1.33;;
45356;SDS011;31092;51.924;21.448;2023-07-31T13:52:34;3.95;;;1.20;;
45356;SDS011;31092;51.924;21.448;2023-07-31T13:55:00;0.93;;;0.93;;
45356;SDS011;31092;51.924;21.448;2023-07-31T13:57:25;0.93;;;0.93;;
45356;SDS011;31092;51.924;21.448;2023-07-31T13:59:51;2.08;;;1.13;;
45356;SDS011;31092;51.924;21.448;2023-07-31T14:02:16;0.85;;;0.85;;
45356;SDS011;31092;51.924;21.448;2023-07-31T14:04:42;2.30;;;0.90;;
45356;SDS011;31092;51.924;21.448;2023-07-31T14:07:07;0.70;;;0.70;;
45356;SDS011;31092;51.924;21.448;2023-07-31T14:09:33;0.88;;;0.77;;
45356;SDS011;31092;51.924;21.448;2023-07-31T14:11:58;2.65;;;0.95;;
45356;SDS011;31092;51.924;21.448;2023-07-31T14:14:24;1.02;;;0.98;;
45356;SDS011;31092;51.924;21.448;2023-07-31T14:16:50;1.15;;;0.90;;
45356;SDS011;31092;51.924;21.448;2023-07-31T14:19:15;0.90;;;0.80;;
45356;SDS011;31092;51.924;21.448;2023-07-31T14:21:41;1.80;;;1.13;;
45356;SDS011;31092;51.924;21.448;2023-07-31T14:24:06;2.85;;;0.93;;
45356;SDS011;31092;51.924;21.448;2023-07-31T14:26:32;1.42;;;0.77;;
45356;SDS011;31092;51.924;21.448;2023-07-31T14:28:57;0.85;;;0.70;;
45356;SDS011;31092;51.924;21.448;2023-07-31T14:31:23;1.55;;;0.90;;
45356;SDS011;31092;51.924;21.448;2023-07-31T14:33:48;0.90;;;0.88;;
45356;SDS011;31092;51.924;21.448;2023-07-31T14:36:14;1.23;;;1.00;;
45356;SDS011;31092;51.924;21.448;2023-07-31T14:38:40;2.17;;;0.95;;
45356;SDS011;31092;51.924;21.448;2023-07-31T14:41:05;0.85;;;0.85;;
45356;SDS011;31092;51.924;21.448;2023-07-31T14:43:31;1.20;;;1.10;;
45356;SDS011;31092;51.924;21.448;2023-07-31T14:45:57;1.85;;;0.90;;
45356;SDS011;31092;51.924;21.448;2023-07-31T14:48:24;1.88;;;1.02;;
45356;SDS011;31092;51.924;21.448;2023-07-31T14:50:50;0.95;;;0.95;;
45356;SDS011;31092;51.924;21.448;2023-07-31T14:53:16;1.52;;;0.90;;
45356;SDS011;31092;51.924;21.448;2023-07-31T14:55:41;1.25;;;1.00;;
45356;SDS011;31092;51.924;21.448;2023-07-31T14:58:07;1.00;;;0.95;;
45356;SDS011;31092;51.924;21.448;2023-07-31T15:00:32;1.58;;;1.23;;
45356;SDS011;31092;51.924;21.448;2023-07-31T15:02:58;1.25;;;1.00;;
45356;SDS011;31092;51.924;21.448;2023-07-31T15:05:23;1.10;;;1.00;;
45356;SDS011;31092;51.924;21.448;2023-07-31T15:07:49;3.22;;;1.30;;
45356;SDS011;31092;51.924;21.448;2023-07-31T15:10:14;1.80;;;1.27;;
45356;SDS011;31092;51.924;21.448;2023-07-31T15:12:40;1.30;;;1.05;;
45356;SDS011;31092;51.924;21.448;2023-07-31T15:15:07;1.30;;;0.98;;
45356;SDS011;31092;51.924;21.448;2023-07-31T15:17:33;1.20;;;1.10;;